createdAt,value
2022-11-29T00:00:50.152Z,23.39
2022-11-29T00:01:54.448Z,25.12
2022-11-29T00:02:56.432Z,24.31
2022-11-29T00:03:58.727Z,23.38
2022-11-29T00:05:00.507Z,24.09
2022-11-29T00:06:07.907Z,22.95
2022-11-29T00:07:09.676Z,22.29
2022-11-29T00:08:11.734Z,23.20
2022-11-29T00:09:13.921Z,23.85
2022-11-29T00:10:15.805Z,23.67
2022-11-29T00:11:38.648Z,22.17
2022-11-29T00:12:40.445Z,24.43
2022-11-29T00:13:42.181Z,24.47
2022-11-29T00:14:44.282Z,23.27
2022-11-29T00:15:46.421Z,22.53
2022-11-29T00:16:53.788Z,22.71
2022-11-29T00:17:55.663Z,24.19
2022-11-29T00:18:57.495Z,21.69
2022-11-29T00:19:59.353Z,24.19
2022-11-29T00:21:05.644Z,24.17
2022-11-29T00:22:07.392Z,22.73
2022-11-29T00:23:09.140Z,23.52
2022-11-29T00:24:10.886Z,23.33
2022-11-29T00:25:13.158Z,22.53
2022-11-29T00:26:14.928Z,22.71
2022-11-29T00:27:16.761Z,22.22
2022-11-29T00:28:18.529Z,22.09
2022-11-29T00:29:20.425Z,21.94
2022-11-29T00:30:22.572Z,25.35
2022-11-29T00:31:30.617Z,22.80
2022-11-29T00:32:32.380Z,22.67
2022-11-29T00:33:34.177Z,21.79
2022-11-29T00:34:37.209Z,20.91
2022-11-29T00:35:39.030Z,22.02
2022-11-29T00:36:41.228Z,22.56
2022-11-29T00:37:42.969Z,23.06
2022-11-29T00:38:45.436Z,22.77
2022-11-29T00:39:47.306Z,23.59
2022-11-29T00:40:52.691Z,22.62
2022-11-29T00:41:54.812Z,23.95
2022-11-29T00:42:56.583Z,22.04
2022-11-29T00:43:58.683Z,22.95
2022-11-29T00:45:00.433Z,22.91
2022-11-29T00:46:04.113Z,22.20
2022-11-29T00:47:05.915Z,21.48
2022-11-29T00:48:07.663Z,21.69
2022-11-29T00:49:09.474Z,22.35
2022-11-29T00:50:11.606Z,22.15
2022-11-29T00:51:13.724Z,22.52
2022-11-29T00:52:15.569Z,22.11
2022-11-29T00:53:17.500Z,22.12
2022-11-29T00:54:20.322Z,22.19
2022-11-29T00:55:22.067Z,20.91
2022-11-29T00:56:24.001Z,20.38
2022-11-29T00:57:25.747Z,22.00
2022-11-29T00:58:28.340Z,22.95
2022-11-29T00:59:30.460Z,23.21
2022-11-29T01:00:33.359Z,22.29
2022-11-29T01:01:35.562Z,22.06
2022-11-29T01:02:37.623Z,23.40
2022-11-29T01:03:39.906Z,23.05
2022-11-29T01:04:41.877Z,22.63
2022-11-29T01:05:44.641Z,22.19
2022-11-29T01:06:46.702Z,21.67
2022-11-29T01:07:48.520Z,21.68
2022-11-29T01:08:50.736Z,21.39
2022-11-29T01:09:52.482Z,21.23
2022-11-29T01:11:14.418Z,22.19
2022-11-29T01:12:16.325Z,21.62
2022-11-29T01:13:18.107Z,22.50
2022-11-29T01:14:20.347Z,21.97
2022-11-29T01:15:22.723Z,21.27
2022-11-29T01:16:25.190Z,21.88
2022-11-29T01:17:26.985Z,22.75
2022-11-29T01:18:30.523Z,21.27
2022-11-29T01:19:32.300Z,23.25
2022-11-29T01:20:34.052Z,21.50
2022-11-29T01:21:36.231Z,21.22
2022-11-29T01:22:39.532Z,22.23
2022-11-29T01:23:42.556Z,23.01
2022-11-29T01:24:44.661Z,23.01
2022-11-29T01:25:46.774Z,22.63
2022-11-29T01:26:48.667Z,22.55
2022-11-29T01:27:50.448Z,22.09
2022-11-29T01:28:55.109Z,23.19
2022-11-29T01:29:56.957Z,22.68
2022-11-29T01:30:58.787Z,23.23
2022-11-29T01:32:00.608Z,24.32
2022-11-29T01:33:02.335Z,22.40
2022-11-29T01:34:06.072Z,23.10
2022-11-29T01:35:08.511Z,21.35
2022-11-29T01:36:12.880Z,22.32
2022-11-29T01:37:14.745Z,21.99
2022-11-29T01:38:18.249Z,22.17
2022-11-29T01:39:20.063Z,23.46
2022-11-29T01:40:21.875Z,22.77
2022-11-29T01:41:26.593Z,23.53
2022-11-29T01:42:28.400Z,21.78
2022-11-29T01:43:31.541Z,22.77
2022-11-29T01:44:33.236Z,22.72
2022-11-29T01:45:39.312Z,22.51
2022-11-29T01:46:43.987Z,24.14
2022-11-29T01:47:48.838Z,23.20
2022-11-29T01:48:57.692Z,24.12
2022-11-29T01:50:00.627Z,22.82
2022-11-29T01:51:03.144Z,24.28
2022-11-29T01:52:09.945Z,22.75
2022-11-29T01:53:15.565Z,22.86
2022-11-29T01:54:18.800Z,21.78
2022-11-29T01:55:21.782Z,23.23
2022-11-29T01:56:25.263Z,22.84
2022-11-29T01:57:28.157Z,22.55
2022-11-29T01:58:30.331Z,22.46
2022-11-29T01:59:33.468Z,23.36
2022-11-29T02:00:36.728Z,22.62
2022-11-29T02:01:39.487Z,22.93
2022-11-29T02:02:55.729Z,22.26
2022-11-29T02:04:00.023Z,22.14
2022-11-29T02:05:03.911Z,21.23
2022-11-29T02:06:07.973Z,21.62
2022-11-29T02:07:10.277Z,21.74
2022-11-29T02:08:16.519Z,23.13
2022-11-29T02:09:21.854Z,22.06
2022-11-29T02:10:41.019Z,21.41
2022-11-29T02:12:04.940Z,21.65
2022-11-29T02:13:43.033Z,21.61
2022-11-29T02:15:08.876Z,22.85
2022-11-29T02:16:29.415Z,22.99
2022-11-29T02:17:37.077Z,22.75
2022-11-29T02:18:50.214Z,23.73
2022-11-29T02:20:16.264Z,22.17
2022-11-29T02:21:47.389Z,21.09
2022-11-29T02:23:22.159Z,21.82
2022-11-29T02:24:57.897Z,23.10
2022-11-29T02:26:11.496Z,22.86
2022-11-29T02:27:57.408Z,22.13
2022-11-29T02:29:02.319Z,22.66
2022-11-29T02:30:38.272Z,21.83
2022-11-29T02:31:57.040Z,22.91
2022-11-29T02:33:10.299Z,23.66
2022-11-29T02:34:36.762Z,22.78
2022-11-29T02:36:17.192Z,22.15
2022-11-29T02:37:49.528Z,22.45
2022-11-29T02:39:12.365Z,23.08
2022-11-29T02:40:41.432Z,21.67
2022-11-29T02:42:15.959Z,21.95
2022-11-29T02:43:49.749Z,21.81
2022-11-29T02:45:14.245Z,21.28
2022-11-29T02:46:44.444Z,23.37
2022-11-29T02:47:55.986Z,21.91
2022-11-29T02:49:13.551Z,21.99
2022-11-29T02:50:41.416Z,21.67
2022-11-29T02:51:57.000Z,21.81
2022-11-29T02:53:38.353Z,21.93
2022-11-29T02:54:54.857Z,22.00
2022-11-29T02:56:13.074Z,21.87
2022-11-29T02:57:42.854Z,21.27
2022-11-29T02:59:03.585Z,23.04
2022-11-29T03:00:18.817Z,22.41
2022-11-29T03:01:51.050Z,21.89
2022-11-29T03:03:40.964Z,23.05
2022-11-29T03:05:15.879Z,22.32
2022-11-29T03:06:36.075Z,22.11
2022-11-29T03:08:06.219Z,21.59
2022-11-29T03:09:19.174Z,21.53
2022-11-29T03:10:29.868Z,21.76
2022-11-29T03:11:37.394Z,20.69
2022-11-29T03:12:49.552Z,20.85
2022-11-29T03:14:15.489Z,20.76
2022-11-29T03:15:22.906Z,20.66
2022-11-29T03:16:50.810Z,20.88
2022-11-29T03:18:31.742Z,22.48
2022-11-29T03:19:50.589Z,23.19
2022-11-29T03:20:54.940Z,22.42
2022-11-29T03:22:13.737Z,22.10
2022-11-29T03:23:28.448Z,22.50
2022-11-29T03:24:42.737Z,22.02
2022-11-29T03:26:07.615Z,22.13
2022-11-29T03:27:15.621Z,21.99
2022-11-29T03:28:31.583Z,21.32
2022-11-29T03:29:43.130Z,21.46
2022-11-29T03:31:01.395Z,19.88
2022-11-29T03:32:12.633Z,21.87
2022-11-29T03:33:32.069Z,23.20
2022-11-29T03:34:56.974Z,21.59
2022-11-29T03:36:13.035Z,22.21
2022-11-29T03:37:26.118Z,21.61
2022-11-29T03:38:42.168Z,23.48
2022-11-29T03:39:43.871Z,23.71
2022-11-29T03:40:56.181Z,23.13
2022-11-29T03:42:06.348Z,21.60
2022-11-29T03:43:19.818Z,23.61
2022-11-29T03:44:27.264Z,22.07
2022-11-29T03:46:01.938Z,23.18
2022-11-29T03:47:15.401Z,21.74
2022-11-29T03:48:34.639Z,22.93
2022-11-29T03:49:56.181Z,20.98
2022-11-29T03:51:03.195Z,21.17
2022-11-29T03:52:33.141Z,20.58
2022-11-29T03:54:00.022Z,22.35
2022-11-29T03:55:26.624Z,21.71
2022-11-29T03:56:37.439Z,21.90
2022-11-29T03:57:51.388Z,22.24
2022-11-29T03:59:21.868Z,22.19
2022-11-29T04:00:24.101Z,23.00
2022-11-29T04:01:42.840Z,22.80
2022-11-29T04:03:03.863Z,23.06
2022-11-29T04:04:43.615Z,21.09
2022-11-29T04:05:55.017Z,20.98
2022-11-29T04:07:33.918Z,21.45
2022-11-29T04:09:17.390Z,22.03
2022-11-29T04:10:22.515Z,20.98
2022-11-29T04:11:30.603Z,21.12
2022-11-29T04:12:49.294Z,22.17
2022-11-29T04:14:46.747Z,21.29
2022-11-29T04:16:19.991Z,21.62
2022-11-29T04:17:50.026Z,20.97
2022-11-29T04:19:45.029Z,22.50
2022-11-29T04:21:08.012Z,20.90
2022-11-29T04:22:18.994Z,21.39
2022-11-29T04:23:46.839Z,21.03
2022-11-29T04:25:20.340Z,22.40
2022-11-29T04:26:38.863Z,21.75
2022-11-29T04:28:40.409Z,21.90
2022-11-29T04:29:51.445Z,23.13
2022-11-29T04:31:22.814Z,22.85
2022-11-29T04:32:58.940Z,22.10
2022-11-29T04:34:22.646Z,22.36
2022-11-29T04:35:33.349Z,22.65
2022-11-29T04:36:43.914Z,21.76
2022-11-29T04:38:04.133Z,21.49
2022-11-29T04:39:44.164Z,21.67
2022-11-29T04:41:04.510Z,22.95
2022-11-29T04:42:41.347Z,21.56
2022-11-29T04:44:08.255Z,23.10
2022-11-29T04:45:34.370Z,22.26
2022-11-29T04:46:58.167Z,22.80
2022-11-29T04:48:18.959Z,23.47
2022-11-29T04:49:32.535Z,22.02
2022-11-29T04:50:54.570Z,22.36
2022-11-29T04:52:21.049Z,22.08
2022-11-29T04:53:36.307Z,21.30
2022-11-29T04:55:05.162Z,22.11
2022-11-29T04:56:13.022Z,21.76
2022-11-29T04:57:42.188Z,22.30
2022-11-29T04:58:56.928Z,22.87
2022-11-29T05:00:10.253Z,22.23
2022-11-29T05:01:39.909Z,22.36
2022-11-29T05:02:58.295Z,23.06
2022-11-29T05:04:25.567Z,22.98
2022-11-29T05:05:44.582Z,21.81
2022-11-29T05:07:05.688Z,21.88
2022-11-29T05:08:19.623Z,21.44
2022-11-29T05:09:46.527Z,21.76
2022-11-29T05:11:14.364Z,22.30
2022-11-29T05:12:27.930Z,21.48
2022-11-29T05:13:47.965Z,21.15
2022-11-29T05:15:21.475Z,19.47
2022-11-29T05:16:42.798Z,19.81
2022-11-29T05:18:04.612Z,19.94
2022-11-29T05:19:31.091Z,20.13
2022-11-29T05:20:48.434Z,21.92
2022-11-29T05:22:22.660Z,22.37
2022-11-29T05:23:33.215Z,21.70
2022-11-29T05:24:44.080Z,21.89
2022-11-29T05:26:00.261Z,22.24
2022-11-29T05:27:17.206Z,21.82
2022-11-29T05:28:36.660Z,22.25
2022-11-29T05:29:44.919Z,22.86
2022-11-29T05:31:18.894Z,21.57
2022-11-29T05:32:30.842Z,21.76
2022-11-29T05:34:08.530Z,21.48
2022-11-29T05:35:29.300Z,20.34
2022-11-29T05:36:58.841Z,20.73
2022-11-29T05:38:38.888Z,21.32
2022-11-29T05:40:07.180Z,22.13
2022-11-29T05:41:32.986Z,23.24
2022-11-29T05:42:55.394Z,21.50
2022-11-29T05:44:13.926Z,22.06
2022-11-29T05:45:32.164Z,21.67
2022-11-29T05:46:56.111Z,21.79
2022-11-29T05:48:22.903Z,20.54
2022-11-29T05:49:49.049Z,21.73
2022-11-29T05:51:13.929Z,22.07
2022-11-29T05:52:22.809Z,21.99
2022-11-29T05:54:12.729Z,22.50
2022-11-29T05:55:14.415Z,22.08
2022-11-29T05:56:45.943Z,21.53
2022-11-29T05:58:00.842Z,21.72
2022-11-29T05:59:13.788Z,20.90
2022-11-29T06:00:19.452Z,21.28
2022-11-29T06:01:31.667Z,21.69
2022-11-29T06:02:59.137Z,22.31
2022-11-29T06:04:19.717Z,23.48
2022-11-29T06:05:39.666Z,22.73
2022-11-29T06:07:26.399Z,21.52
2022-11-29T06:09:20.068Z,20.94
2022-11-29T06:10:28.515Z,21.33
2022-11-29T06:11:57.710Z,22.32
2022-11-29T06:13:09.403Z,23.02
2022-11-29T06:14:29.200Z,22.90
2022-11-29T06:15:56.759Z,21.96
2022-11-29T06:17:39.203Z,20.92
2022-11-29T06:19:02.585Z,21.35
2022-11-29T06:21:01.710Z,20.27
2022-11-29T06:22:27.375Z,22.18
2022-11-29T06:24:20.443Z,21.80
2022-11-29T06:25:47.423Z,21.45
2022-11-29T06:27:17.116Z,22.40
2022-11-29T06:28:41.618Z,23.07
2022-11-29T06:30:00.700Z,22.93
2022-11-29T06:31:23.767Z,24.06
2022-11-29T06:32:50.545Z,23.08
2022-11-29T06:34:09.350Z,23.99
2022-11-29T06:35:35.551Z,23.96
2022-11-29T06:37:07.523Z,22.15
2022-11-29T06:38:19.939Z,22.03
2022-11-29T06:39:22.020Z,20.63
2022-11-29T06:40:24.649Z,22.64
2022-11-29T06:41:26.837Z,22.16
2022-11-29T06:42:28.656Z,21.88
2022-11-29T06:43:31.063Z,21.96
2022-11-29T06:44:33.499Z,21.39
2022-11-29T06:45:35.711Z,21.05
2022-11-29T06:46:47.885Z,21.85
2022-11-29T06:47:59.521Z,23.97
2022-11-29T06:49:19.625Z,22.57
2022-11-29T06:50:40.975Z,24.25
2022-11-29T06:52:04.283Z,23.89
2022-11-29T06:53:20.952Z,23.68
2022-11-29T06:54:38.644Z,23.68
2022-11-29T06:56:08.260Z,25.36
2022-11-29T06:57:24.877Z,25.12
2022-11-29T06:58:42.151Z,25.02
2022-11-29T07:00:09.359Z,24.09
2022-11-29T07:01:43.612Z,25.83
2022-11-29T07:03:06.916Z,26.24
2022-11-29T07:04:23.956Z,25.13
2022-11-29T07:05:34.363Z,25.57
2022-11-29T07:06:36.498Z,25.99
2022-11-29T07:07:40.827Z,26.07
2022-11-29T07:08:43.738Z,26.50
2022-11-29T07:09:49.511Z,26.08
2022-11-29T07:10:54.967Z,26.57
2022-11-29T07:11:57.221Z,28.72
2022-11-29T07:12:59.505Z,27.78
2022-11-29T07:14:01.749Z,27.50
2022-11-29T07:15:04.540Z,26.02
2022-11-29T07:16:39.328Z,25.58
2022-11-29T07:18:05.565Z,26.09
2022-11-29T07:19:28.453Z,28.10
2022-11-29T07:20:48.338Z,26.48
2022-11-29T07:22:25.634Z,25.22
2022-11-29T07:23:45.301Z,24.71
2022-11-29T07:25:08.236Z,26.68
2022-11-29T07:26:15.028Z,32.15
2022-11-29T07:27:25.583Z,28.32
2022-11-29T07:28:39.853Z,29.12
2022-11-29T07:29:50.446Z,30.85
2022-11-29T07:31:09.780Z,31.16
2022-11-29T07:32:38.213Z,29.04
2022-11-29T07:34:03.725Z,26.17
2022-11-29T07:35:23.792Z,28.06
2022-11-29T07:36:35.181Z,37.64
2022-11-29T07:37:41.282Z,40.63
2022-11-29T07:39:01.850Z,37.60
2022-11-29T07:40:03.705Z,31.74
2022-11-29T07:41:17.603Z,31.40
2022-11-29T07:42:42.002Z,31.68
2022-11-29T07:44:05.655Z,34.41
2022-11-29T07:45:23.928Z,31.73
2022-11-29T07:46:26.363Z,30.72
2022-11-29T07:47:34.096Z,32.04
2022-11-29T07:48:37.434Z,31.87
2022-11-29T07:49:39.254Z,30.25
2022-11-29T07:50:41.554Z,29.88
2022-11-29T07:51:43.578Z,27.49
2022-11-29T07:52:45.762Z,29.74
2022-11-29T07:53:47.946Z,31.59
2022-11-29T07:54:49.755Z,36.46
2022-11-29T07:55:51.763Z,41.92
2022-11-29T07:56:53.675Z,41.29
2022-11-29T07:57:56.124Z,38.86
2022-11-29T07:58:57.942Z,43.42
2022-11-29T07:59:59.715Z,51.41
2022-11-29T08:01:02.295Z,39.97
2022-11-29T08:02:10.170Z,50.51
2022-11-29T08:03:14.677Z,61.66
2022-11-29T08:04:16.472Z,55.46
2022-11-29T08:05:19.105Z,55.35
2022-11-29T08:06:25.969Z,39.02
2022-11-29T08:07:28.592Z,38.25
2022-11-29T08:08:30.380Z,32.66
2022-11-29T08:09:32.143Z,39.10
2022-11-29T08:10:35.686Z,44.71
2022-11-29T08:11:39.051Z,38.66
2022-11-29T08:12:47.410Z,35.75
2022-11-29T08:13:49.181Z,35.15
2022-11-29T08:14:50.935Z,36.82
2022-11-29T08:15:52.691Z,40.05
2022-11-29T08:16:54.485Z,36.66
2022-11-29T08:17:56.415Z,34.51
2022-11-29T08:18:58.193Z,37.33
2022-11-29T08:20:04.105Z,36.31
2022-11-29T08:21:07.644Z,32.50
2022-11-29T08:22:09.530Z,32.12
2022-11-29T08:23:13.722Z,31.55
2022-11-29T08:24:15.518Z,31.54
2022-11-29T08:25:17.325Z,31.27
2022-11-29T08:26:20.903Z,31.83
2022-11-29T08:27:22.673Z,30.05
2022-11-29T08:28:24.465Z,30.68
2022-11-29T08:29:26.292Z,33.62
2022-11-29T08:30:28.054Z,33.23
2022-11-29T08:31:29.903Z,31.11
2022-11-29T08:32:31.889Z,30.68
2022-11-29T08:33:42.456Z,28.18
2022-11-29T08:34:44.627Z,26.56
2022-11-29T08:35:46.668Z,26.43
2022-11-29T08:36:49.478Z,28.87
2022-11-29T08:37:51.943Z,26.64
2022-11-29T08:39:02.275Z,28.02
2022-11-29T08:40:08.680Z,28.69
2022-11-29T08:41:13.781Z,26.62
2022-11-29T08:42:15.557Z,26.06
2022-11-29T08:43:17.578Z,25.05
2022-11-29T08:44:19.405Z,25.03
2022-11-29T08:45:21.315Z,24.27
2022-11-29T08:46:43.129Z,26.60
2022-11-29T08:47:44.904Z,23.66
2022-11-29T08:48:47.715Z,23.88
2022-11-29T08:50:08.167Z,25.76
2022-11-29T08:51:11.490Z,30.15
2022-11-29T08:52:31.995Z,34.80
2022-11-29T08:53:43.354Z,37.04
2022-11-29T08:54:45.511Z,41.86
2022-11-29T08:55:47.574Z,42.95
2022-11-29T08:57:23.602Z,42.96
2022-11-29T08:58:14.770Z,46.63
2022-11-29T08:59:16.532Z,45.43
2022-11-29T09:00:21.359Z,44.55
2022-11-29T09:01:23.774Z,37.36
2022-11-29T09:02:25.811Z,36.87
2022-11-29T09:03:46.541Z,33.18
2022-11-29T09:04:48.308Z,29.72
2022-11-29T09:05:50.734Z,25.62
2022-11-29T09:06:52.598Z,27.09
2022-11-29T09:07:54.428Z,25.08
2022-11-29T09:08:58.001Z,33.96
2022-11-29T09:10:05.031Z,52.09
2022-11-29T09:11:08.757Z,64.07
2022-11-29T09:12:10.519Z,70.53
2022-11-29T09:13:12.840Z,48.30
2022-11-29T09:14:17.289Z,37.59
2022-11-29T09:15:19.171Z,38.90
2022-11-29T09:16:25.539Z,33.56
2022-11-29T09:17:27.632Z,29.01
2022-11-29T09:18:29.474Z,37.04
2022-11-29T09:19:31.271Z,37.29
2022-11-29T09:20:33.948Z,35.32
2022-11-29T09:21:38.317Z,40.62
2022-11-29T09:22:40.107Z,36.26
2022-11-29T09:23:45.761Z,32.23
2022-11-29T09:24:47.714Z,37.17
2022-11-29T09:25:49.817Z,36.33
2022-11-29T09:26:51.595Z,33.19
2022-11-29T09:27:53.713Z,32.77
2022-11-29T09:28:58.115Z,29.41
2022-11-29T09:29:59.850Z,31.51
2022-11-29T09:31:16.328Z,30.87
2022-11-29T09:32:18.114Z,29.26
2022-11-29T09:33:19.925Z,30.61
2022-11-29T09:34:21.768Z,28.35
2022-11-29T09:35:23.705Z,26.93
2022-11-29T09:36:28.822Z,29.06
2022-11-29T09:37:31.163Z,29.06
2022-11-29T09:38:34.217Z,28.41
2022-11-29T09:39:36.056Z,26.42
2022-11-29T09:40:52.919Z,27.79
2022-11-29T09:42:27.333Z,27.14
2022-11-29T09:44:01.833Z,26.99
2022-11-29T09:45:10.920Z,27.78
2022-11-29T09:46:22.302Z,28.58
2022-11-29T09:47:38.456Z,29.28
2022-11-29T09:49:03.679Z,28.54
2022-11-29T09:50:16.755Z,26.71
2022-11-29T09:51:44.061Z,25.34
2022-11-29T09:52:51.935Z,26.16
2022-11-29T09:54:19.862Z,26.59
2022-11-29T09:55:30.623Z,23.95
2022-11-29T09:56:42.167Z,24.68
2022-11-29T09:57:45.394Z,25.79
2022-11-29T09:59:00.411Z,23.82
2022-11-29T10:00:14.121Z,24.11
2022-11-29T10:01:26.759Z,23.73
2022-11-29T10:02:47.595Z,24.26
2022-11-29T10:03:54.519Z,23.58
2022-11-29T10:05:15.172Z,22.77
2022-11-29T10:06:28.251Z,23.22
2022-11-29T10:07:29.935Z,25.36
2022-11-29T10:08:34.513Z,25.96
2022-11-29T10:09:45.631Z,24.53
2022-11-29T10:10:50.980Z,24.72
2022-11-29T10:12:06.580Z,22.09
2022-11-29T10:13:34.411Z,23.93
2022-11-29T10:14:48.814Z,33.87
2022-11-29T10:15:55.820Z,39.31
2022-11-29T10:17:34.942Z,60.15
2022-11-29T10:18:59.241Z,55.39
2022-11-29T10:20:17.743Z,44.76
2022-11-29T10:21:29.473Z,34.02
2022-11-29T10:22:45.397Z,68.41
2022-11-29T10:23:52.264Z,59.28
2022-11-29T10:25:00.948Z,66.29
2022-11-29T10:26:08.011Z,53.79
2022-11-29T10:27:19.559Z,41.95
2022-11-29T10:28:27.658Z,39.09
2022-11-29T10:29:29.442Z,39.86
2022-11-29T10:30:36.186Z,35.84
2022-11-29T10:31:44.183Z,43.82
2022-11-29T10:32:52.105Z,32.88
2022-11-29T10:33:56.178Z,28.11
2022-11-29T10:35:00.623Z,28.46
2022-11-29T10:36:18.362Z,32.73
2022-11-29T10:37:23.213Z,31.95
2022-11-29T10:38:32.530Z,29.26
2022-11-29T10:39:49.034Z,33.42
2022-11-29T10:41:09.582Z,45.36
2022-11-29T10:42:40.888Z,35.35
2022-11-29T10:43:43.211Z,35.32
2022-11-29T10:44:45.536Z,35.15
2022-11-29T10:45:55.952Z,47.42
2022-11-29T10:47:10.449Z,46.25
2022-11-29T10:48:28.528Z,34.14
2022-11-29T10:49:37.290Z,37.73
2022-11-29T10:50:44.241Z,33.37
2022-11-29T10:51:47.113Z,32.06
2022-11-29T10:52:48.858Z,28.89
2022-11-29T10:53:54.637Z,29.46
2022-11-29T10:54:59.570Z,28.35
2022-11-29T10:56:09.526Z,26.05
2022-11-29T10:57:18.551Z,24.43
2022-11-29T10:58:28.565Z,26.31
2022-11-29T10:59:32.932Z,25.24
2022-11-29T11:00:53.726Z,23.60
2022-11-29T11:01:56.527Z,23.75
2022-11-29T11:03:17.335Z,23.45
2022-11-29T11:04:28.948Z,24.22
2022-11-29T11:05:30.801Z,28.14
2022-11-29T11:06:46.253Z,27.56
2022-11-29T11:07:57.656Z,23.08
2022-11-29T11:09:21.274Z,26.11
2022-11-29T11:10:30.886Z,28.39
2022-11-29T11:11:33.683Z,26.83
2022-11-29T11:12:37.021Z,28.00
2022-11-29T11:13:41.173Z,27.26
2022-11-29T11:14:45.006Z,27.67
2022-11-29T11:15:47.170Z,29.79
2022-11-29T11:16:49.790Z,29.34
2022-11-29T11:17:57.899Z,29.83
2022-11-29T11:19:25.355Z,33.23
2022-11-29T11:20:32.754Z,38.59
2022-11-29T11:21:39.179Z,38.13
2022-11-29T11:22:41.213Z,36.28
2022-11-29T11:23:56.646Z,32.10
2022-11-29T11:25:03.324Z,32.50
2022-11-29T11:26:12.811Z,32.69
2022-11-29T11:27:30.064Z,42.41
2022-11-29T11:28:42.442Z,66.92
2022-11-29T11:29:45.751Z,89.51
2022-11-29T11:30:53.755Z,66.48
2022-11-29T11:31:59.069Z,50.36
2022-11-29T11:33:31.325Z,62.21
2022-11-29T11:34:38.335Z,39.48
2022-11-29T11:35:40.880Z,43.13
2022-11-29T11:36:42.649Z,44.09
2022-11-29T11:37:56.796Z,48.76
2022-11-29T11:39:19.360Z,42.02
2022-11-29T11:40:29.742Z,35.05
2022-11-29T11:42:02.719Z,37.92
2022-11-29T11:43:04.688Z,36.04
2022-11-29T11:44:47.481Z,36.14
2022-11-29T11:45:54.654Z,32.07
2022-11-29T11:46:57.136Z,34.86
2022-11-29T11:48:13.416Z,39.06
2022-11-29T11:49:49.964Z,48.01
2022-11-29T11:50:56.310Z,57.16
2022-11-29T11:52:01.012Z,70.30
2022-11-29T11:53:21.522Z,66.74
2022-11-29T11:54:23.523Z,72.39
2022-11-29T11:55:43.000Z,76.63
2022-11-29T11:56:44.812Z,57.49
2022-11-29T11:57:57.370Z,50.29
2022-11-29T11:58:59.334Z,44.46
2022-11-29T12:00:06.623Z,39.58
2022-11-29T12:01:13.213Z,33.88
2022-11-29T12:02:40.062Z,35.39
2022-11-29T12:04:01.922Z,38.91
2022-11-29T12:05:13.346Z,39.30
2022-11-29T12:06:32.284Z,40.27
2022-11-29T12:08:07.421Z,45.12
2022-11-29T12:09:36.687Z,42.01
2022-11-29T12:10:40.510Z,36.70
2022-11-29T12:11:48.078Z,35.63
2022-11-29T12:12:52.213Z,30.52
2022-11-29T12:13:59.777Z,32.74
2022-11-29T12:15:01.531Z,33.10
2022-11-29T12:16:33.487Z,30.12
2022-11-29T12:18:01.835Z,29.09
2022-11-29T12:19:21.955Z,31.83
2022-11-29T12:20:39.632Z,29.41
2022-11-29T12:21:47.350Z,28.91
2022-11-29T12:23:16.513Z,39.38
2022-11-29T12:24:42.729Z,35.88
2022-11-29T12:25:50.577Z,34.66
2022-11-29T12:26:58.948Z,37.81
2022-11-29T12:28:12.024Z,35.46
2022-11-29T12:29:19.121Z,35.04
2022-11-29T12:30:21.184Z,33.98
2022-11-29T12:31:39.992Z,32.37
2022-11-29T12:33:12.812Z,32.67
2022-11-29T12:34:43.429Z,30.61
2022-11-29T12:36:01.082Z,33.55
2022-11-29T12:37:30.121Z,33.91
2022-11-29T12:38:45.170Z,28.89
2022-11-29T12:40:09.382Z,30.14
2022-11-29T12:41:49.501Z,26.69
2022-11-29T12:43:13.027Z,31.78
2022-11-29T12:44:41.394Z,31.75
2022-11-29T12:46:06.243Z,29.85
2022-11-29T12:47:35.618Z,30.63
2022-11-29T12:49:00.827Z,41.98
2022-11-29T12:50:24.191Z,40.42
2022-11-29T12:51:46.624Z,39.33
2022-11-29T12:53:10.563Z,41.65
2022-11-29T12:54:40.285Z,44.21
2022-11-29T12:56:13.632Z,37.75
2022-11-29T12:57:24.517Z,34.35
2022-11-29T12:58:57.460Z,32.41
2022-11-29T13:00:05.299Z,40.59
2022-11-29T13:01:56.999Z,36.66
2022-11-29T13:03:13.893Z,30.35
2022-11-29T13:04:59.786Z,32.07
2022-11-29T13:06:36.423Z,32.84
2022-11-29T13:08:00.374Z,30.96
2022-11-29T13:09:37.155Z,29.90
2022-11-29T13:11:08.832Z,31.95
2022-11-29T13:12:33.114Z,32.39
2022-11-29T13:13:39.935Z,33.59
2022-11-29T13:14:53.878Z,39.57
2022-11-29T13:16:24.002Z,44.43
2022-11-29T13:17:37.649Z,48.37
2022-11-29T13:18:58.982Z,42.33
2022-11-29T13:20:26.913Z,42.04
2022-11-29T13:21:45.791Z,47.15
2022-11-29T13:23:12.449Z,56.28
2022-11-29T13:24:28.619Z,34.67
2022-11-29T13:25:44.739Z,37.58
2022-11-29T13:26:47.756Z,37.17
2022-11-29T13:28:07.743Z,35.55
2022-11-29T13:29:18.164Z,34.35
2022-11-29T13:30:20.146Z,37.59
2022-11-29T13:31:24.921Z,44.66
2022-11-29T13:32:50.403Z,37.09
2022-11-29T13:34:08.038Z,30.02
2022-11-29T13:35:30.391Z,31.45
2022-11-29T13:36:49.777Z,30.03
2022-11-29T13:38:00.164Z,31.34
2022-11-29T13:39:27.133Z,32.07
2022-11-29T13:40:54.842Z,34.85
2022-11-29T13:42:24.142Z,32.75
2022-11-29T13:43:44.615Z,32.23
2022-11-29T13:44:55.638Z,33.96
2022-11-29T13:46:19.015Z,41.92
2022-11-29T13:47:21.534Z,36.43
2022-11-29T13:48:29.036Z,33.03
2022-11-29T13:49:49.092Z,33.65
2022-11-29T13:50:50.944Z,33.19
2022-11-29T13:52:05.962Z,32.28
2022-11-29T13:53:19.220Z,33.91
2022-11-29T13:54:31.589Z,34.22
2022-11-29T13:55:34.220Z,32.28
2022-11-29T13:56:46.362Z,29.96
2022-11-29T13:59:29.559Z,32.05
2022-11-29T14:00:36.328Z,31.29
2022-11-29T14:01:51.021Z,32.87
2022-11-29T14:02:55.381Z,30.42
2022-11-29T14:04:21.729Z,30.89
2022-11-29T14:05:29.088Z,36.57
2022-11-29T14:06:37.402Z,34.93
2022-11-29T14:09:10.312Z,36.77
2022-11-29T14:10:05.829Z,34.99
2022-11-29T14:11:37.209Z,32.22
2022-11-29T14:12:49.679Z,36.07
2022-11-29T14:14:01.383Z,35.77
2022-11-29T14:15:18.316Z,37.46
2022-11-29T14:16:45.134Z,36.83
2022-11-29T14:17:57.286Z,42.26
2022-11-29T14:19:10.939Z,44.87
2022-11-29T14:20:30.503Z,52.82
2022-11-29T14:22:03.007Z,49.27
2022-11-29T14:23:04.796Z,43.74
2022-11-29T14:24:37.339Z,43.16
2022-11-29T14:26:02.004Z,54.23
2022-11-29T14:27:06.881Z,49.87
2022-11-29T14:28:14.752Z,47.32
2022-11-29T14:29:47.368Z,45.98
2022-11-29T14:30:52.233Z,49.42
2022-11-29T14:31:55.500Z,41.73
2022-11-29T14:33:17.621Z,51.15
2022-11-29T14:34:31.019Z,51.49
2022-11-29T14:35:43.566Z,51.73
2022-11-29T14:37:04.336Z,45.59
2022-11-29T14:38:31.184Z,38.95
2022-11-29T14:39:47.933Z,45.09
2022-11-29T14:41:03.374Z,45.64
2022-11-29T14:42:19.114Z,35.56
2022-11-29T14:43:29.360Z,33.18
2022-11-29T14:44:33.455Z,36.82
2022-11-29T14:45:35.483Z,37.59
2022-11-29T14:46:37.448Z,34.14
2022-11-29T14:47:49.113Z,33.61
2022-11-29T14:48:56.828Z,34.40
2022-11-29T14:50:04.020Z,29.22
2022-11-29T14:51:16.160Z,30.88
2022-11-29T14:52:51.349Z,29.89
2022-11-29T14:54:05.446Z,33.38
2022-11-29T14:55:29.961Z,37.47
2022-11-29T14:56:31.827Z,36.22
2022-11-29T14:57:54.548Z,33.43
2022-11-29T14:59:33.761Z,34.52
2022-11-29T15:00:42.280Z,32.74
2022-11-29T15:02:04.872Z,32.55
2022-11-29T15:03:15.966Z,31.29
2022-11-29T15:04:18.332Z,32.72
2022-11-29T15:05:34.539Z,32.21
2022-11-29T15:06:44.096Z,33.76
2022-11-29T15:07:57.686Z,34.87
2022-11-29T15:09:21.095Z,34.95
2022-11-29T15:10:29.776Z,34.81
2022-11-29T15:11:47.151Z,34.47
2022-11-29T15:12:50.745Z,38.67
2022-11-29T15:14:04.692Z,40.87
2022-11-29T15:15:34.080Z,42.58
2022-11-29T15:16:35.906Z,37.78
2022-11-29T15:18:15.439Z,37.19
2022-11-29T15:19:29.414Z,37.33
2022-11-29T15:20:41.293Z,37.22
2022-11-29T15:22:08.227Z,33.51
2022-11-29T15:23:17.774Z,31.46
2022-11-29T15:24:20.599Z,32.95
2022-11-29T15:25:30.909Z,33.77
2022-11-29T15:26:32.757Z,34.39
2022-11-29T15:27:39.893Z,34.46
2022-11-29T15:28:42.304Z,34.04
2022-11-29T15:29:48.179Z,35.78
2022-11-29T15:31:02.267Z,37.58
2022-11-29T15:32:06.270Z,36.14
2022-11-29T15:33:21.464Z,36.43
2022-11-29T15:34:45.289Z,36.36
2022-11-29T15:35:56.515Z,34.54
2022-11-29T15:37:00.040Z,33.56
2022-11-29T15:38:02.630Z,32.11
2022-11-29T15:39:04.520Z,28.53
2022-11-29T15:40:22.123Z,27.16
2022-11-29T15:41:35.689Z,28.65
2022-11-29T15:42:53.298Z,32.05
2022-11-29T15:44:03.770Z,30.92
2022-11-29T15:45:27.322Z,30.89
2022-11-29T15:46:35.379Z,30.67
2022-11-29T15:47:37.284Z,29.81
2022-11-29T15:48:39.124Z,29.82
2022-11-29T15:49:41.015Z,32.02